Aynor, South Carolina
Current Conditions -  °F | °C
As of 2:35 PM on Friday 24 Oct 2014 (Local Time) from KHYW Reporting Station
Clear Clear  
Wind Chill: 20°   Ceiling: Unl
Heat Index: 20°   Visibility: 7mi
Dew Point:   Wind: 0mph
Humidity: 46%   Direction: NA
Pressure: 29.99"   Gusts: NA
Location:  34°N, 79.2°W
Report Text: KHYW 241835Z AUTO 00000KT 7SM CLR 20/08 A2999 RMK AO2
Loading
Personal Weather Stations






























Interactive Weather Map
Tropical Storm Tracking
New forecast layout! Learn more

10-Day Weather Forecast

Advertisements
Track Severe Weather on mobile